• Join FlightAware (Why Join?)
  • Login
  • US Flag 
11:10AM EST


 

Airport Tracker/Info


-or-


 

Live Flight TrackerFlight Track Log ✈ SWA1718 ✈ 04-Apr-2013 ✈ KMDW - KLAX

Flight Track Log - Related Links

Times and Time Zones

All times are in EDT time to prevent confusion due to time zone crossing. See the SWA1718 flight status page for this flight to view local times or setup timezone preferences in your user account.

Time Position Orientation Groundspeed Altitude Reporting Facility
EDT Latitude Longitude Course Direction KTS MPH feet Rate Location/Type
07:13AM 41.7667 -87.8000 282° West 173 199 2,700  Level Chicago TRACON
07:14AM 41.7667 -87.8667 270° West 204 235 3,500 624 Climbing Chicago TRACON
07:15AM 41.7631 -87.9592 267° West 219 252 4,000 1,571 Climbing Chicago Center
07:16AM 41.7603 -88.0506 268° West 239 275 6,800 3,197 Climbing Chicago Center
07:17AM 41.7564 -88.1494 267° West 265 305 10,500 2,852 Climbing Chicago Center
07:18AM 41.8997 -88.4813 282° West  Level FlightAware Approximate
07:18AM 41.7533 -88.2572 268° West 289 333 12,600  Level Chicago Center
07:19AM 41.7494 -88.4128 268° West 350 403 16,200 3,098 Climbing Chicago Center
07:20AM 41.7439 -88.5461 267° West 362 417 18,900 2,607 Climbing Chicago Center
07:21AM 41.7367 -88.6861 266° West 382 440 21,500 2,459 Climbing Chicago Center
07:22AM 41.7142 -88.8250 258° West 388 447 23,900 2,213 Climbing Chicago Center
07:23AM 41.6972 -88.9708 261° West 399 459 26,000 2,000 Climbing Chicago Center
07:24AM 41.6775 -89.1181 260° West 402 463 28,000 1,854 Climbing Chicago Center
07:25AM 41.6592 -89.2697 261° West 410 472 29,800 2,115 Climbing Chicago Center
07:26AM 41.6381 -89.4506 261° West 413 475 32,300 2,098 Climbing Chicago Center
07:27AM 41.6169 -89.5983 259° West 410 472 34,100 1,561 Climbing Chicago Center
07:28AM 41.5978 -89.7472 260° West 410 472 35,500 1,377 Climbing Chicago Center
07:29AM 41.5781 -89.8944 260° West 406 467 36,900 1,220 Climbing Chicago Center
07:30AM 41.5592 -90.0394 260° West 402 463 38,000 537 Climbing Chicago Center
07:31AM 41.5383 -90.1839 259° West 398 458 38,000  Level Chicago Center
07:32AM 41.5194 -90.3286 260° West 398 458 38,000  Level Chicago Center
07:33AM 41.4989 -90.4744 259° West 399 459 38,000  Level Chicago Center
07:34AM 41.4786 -90.6194 259° West 400 460 38,000  Level Chicago Center
07:35AM 41.4539 -90.7925 259° West 398 458 38,000  Level Chicago Center
07:36AM 41.4342 -90.9353 260° West 396 456 38,000  Level Chicago Center
07:37AM 41.4142 -91.0811 260° West 397 457 38,000  Level Chicago Center
07:38AM 41.3906 -91.2275 258° West 401 461 38,000  Level Chicago Center
07:39AM 41.3697 -91.3725 259° West 402 463 38,000  Level Chicago Center
07:40AM 41.3483 -91.5194 259° West 404 465 38,000  Level Chicago Center
07:41AM 41.3264 -91.6647 259° West 404 465 38,000  Level Chicago Center
07:42AM 41.3044 -91.8111 259° West 406 467 38,000  Level Chicago Center
07:43AM 41.2767 -91.9878 258° West 409 471 38,000  Level Chicago Center
07:44AM 41.2536 -92.1367 258° West 412 474 38,000  Level Chicago Center
07:45AM 41.2317 -92.2856 259° West 413 475 38,000  Level Chicago Center
07:46AM 41.2083 -92.4269 258° West 411 473 38,000  Level Chicago Center
07:48AM 41.1842 -92.5747 258° West 414 476 38,000  Level Chicago Center
07:48AM 41.1664 -92.6956 259° West 414 476 38,000  Level Minneapolis Center
07:49AM 41.1414 -92.8431 257° West 415 478 38,000  Level Minneapolis Center
07:51AM 41.1128 -93.0228 258° West 418 481 38,000  Level Minneapolis Center
07:52AM 41.0833 -93.2011 258° West 418 481 38,000  Level Minneapolis Center
07:53AM 41.0581 -93.3503 257° West 419 482 38,000  Level Minneapolis Center
07:54AM 41.0331 -93.4981 257° West 418 481 38,000  Level Minneapolis Center
07:55AM 41.0089 -93.6442 258° West 414 476 38,000  Level Minneapolis Center
07:56AM 40.9844 -93.7936 258° West 418 481 38,000  Level Minneapolis Center
07:57AM 40.9589 -93.9422 257° West 418 481 38,000  Level Minneapolis Center
07:58AM 40.9222 -94.1542 257° West 426 490 38,000  Level Minneapolis Center
07:59AM 40.8961 -94.3036 257° West 424 488 38,000  Level Minneapolis Center
08:00AM 40.8683 -94.4544 256° West 425 489 38,000  Level Minneapolis Center
08:01AM 40.8344 -94.6464 257° West 423 487 38,000  Level Minneapolis Center
08:02AM 40.8075 -94.7967 257° West 421 484 38,000  Level Minneapolis Center
08:03AM 40.7797 -94.9458 256° West 419 482 38,000  Level Minneapolis Center
08:04AM 40.7533 -95.0958 257° West 418 481 38,000  Level Minneapolis Center
08:05AM 40.7258 -95.2453 256° West 419 482 38,000  Level Minneapolis Center
08:06AM 40.6989 -95.3950 257° West 418 481 38,000  Level Minneapolis Center
08:07AM 40.6703 -95.5442 256° West 418 481 38,000  Level Minneapolis Center
08:08AM 40.6436 -95.6933 257° West 418 481 38,000  Level Minneapolis Center
08:09AM 40.6153 -95.8408 256° West 415 478 38,000  Level Minneapolis Center
08:10AM 40.5864 -95.9889 256° West 415 478 38,000  Level Minneapolis Center
08:11AM 40.5583 -96.1364 256° West 414 476 38,000  Level Minneapolis Center
08:12AM 40.5306 -96.2822 256° West 411 473 38,000  Level Minneapolis Center
08:13AM 40.4950 -96.4575 255° West 411 473 38,000  Level Minneapolis Center
08:14AM 40.4667 -96.6072 256° West 417 480 38,000  Level Minneapolis Center
08:15AM 40.4381 -96.7519 255° West 413 475 38,000  Level Minneapolis Center
08:16AM 40.4086 -96.9003 255° West 417 480 38,000  Level Minneapolis Center
08:18AM 40.3789 -97.0483 255° West 418 481 38,000  Level Minneapolis Center
08:19AM 40.3481 -97.1978 255° West 422 486 38,000  Level Minneapolis Center
08:20AM 40.3167 -97.3508 255° West 424 488 38,000  Level Minneapolis Center
08:21AM 40.2925 -97.4711 255° West 425 489 38,000  Level Minneapolis Center
08:22AM 40.2547 -97.6514 255° West 426 490 38,000  Level Minneapolis Center
08:23AM 40.2178 -97.8317 255° West 425 489 38,000  Level Minneapolis Center
08:24AM 40.1861 -97.9800 254° West 423 487 38,000  Level Minneapolis Center
08:25AM 40.1553 -98.1278 255° West 421 484 38,000  Level Minneapolis Center
08:26AM 40.1231 -98.2753 254° West 421 484 38,000  Level Minneapolis Center
08:27AM 40.0917 -98.4225 254° West 420 483 38,000  Level Minneapolis Center
08:28AM 40.0661 -98.5414 254° West 421 484 38,000  Level Minneapolis Center
08:29AM 40.0272 -98.7186 254° West 422 486 38,000  Level Minneapolis Center
08:30AM 39.9947 -98.8675 254° West 423 487 38,000  Level Minneapolis Center
08:31AM 39.9675 -98.9869 253° West 425 489 38,000  Level Denver Center
08:32AM 39.9353 -99.1372 254° West 429 494 38,000  Level Denver Center
08:33AM 39.9019 -99.2872 254° West 429 494 38,000  Level Denver Center
08:34AM 39.8681 -99.4367 254° West 431 496 38,000  Level Denver Center
08:35AM 39.8339 -99.5872 254° West 432 497 38,000  Level Denver Center
08:36AM 39.7986 -99.7383 253° West 435 501 38,000  Level Denver Center
08:37AM 39.7644 -99.8914 254° West 437 503 38,000  Level Denver Center
08:38AM 39.7231 -100.0694 253° West 440 506 38,000  Level Denver Center
08:39AM 39.6892 -100.2133 253° West 438 504 38,000  Level Denver Center
08:40AM 39.6556 -100.3569 253° West 435 501 38,000  Level Denver Center
08:41AM 39.6156 -100.5236 253° West 432 497 38,000  Level Denver Center
08:42AM 39.5817 -100.6681 253° West 434 499 38,000  Level Denver Center
08:43AM 39.5472 -100.8092 252° West 431 496 38,000  Level Denver Center
08:44AM 39.5075 -100.9767 253° West 434 499 38,000  Level Denver Center
08:45AM 39.4733 -101.1219 253° West 438 504 38,000  Level Denver Center
08:46AM 39.4389 -101.2653 253° West 436 502 38,000  Level Denver Center
08:47AM 39.3972 -101.4308 252° West 433 498 38,000  Level Denver Center
08:48AM 39.3633 -101.5717 253° West 430 495 38,000  Level Denver Center
08:49AM 39.3214 -101.7369 252° West 433 498 38,000  Level Denver Center
08:50AM 39.2892 -101.8639 252° West 426 490 38,000  Level Denver Center
08:51AM 39.2486 -102.0286 252° West 430 495 38,000  Level Denver Center
08:52AM 39.2131 -102.1664 252° West 424 488 38,000  Level Denver Center
08:53AM 39.1722 -102.3275 252° West 425 489 38,000  Level Denver Center
08:54AM 39.1361 -102.4650 251° West 424 488 38,000  Level Denver Center
08:55AM 39.1011 -102.6028 252° West 423 487 38,000  Level Denver Center
08:56AM 39.0647 -102.7458 252° West 423 487 38,000  Level Denver Center
08:57AM 39.0261 -102.8917 251° West 426 490 38,000  Level Denver Center
08:58AM 38.9878 -103.0367 251° West 424 488 38,000  Level Denver Center
08:59AM 38.9500 -103.1831 252° West 427 491 38,000  Level Denver Center
09:00AM 38.9128 -103.3267 252° West 421 484 38,000  Level Denver Center
09:01AM 38.8731 -103.4714 251° West 424 488 38,000  Level Denver Center
09:02AM 38.8350 -103.6128 251° West 420 483 38,000  Level Denver Center
09:03AM 38.7928 -103.7700 251° West 417 480 38,000  Level Denver Center
09:04AM 38.7569 -103.9019 251° West 412 474 38,000  Level Denver Center
09:05AM 38.7147 -104.0572 251° West 415 478 38,000  Level Denver Center
09:06AM 38.6817 -104.1778 251° West 415 478 38,000  Level Denver Center
09:07AM 38.6497 -104.2950 251° West 414 476 38,000  Level Denver Center
09:08AM 38.6044 -104.4603 251° West 417 480 38,000  Level Denver Center
09:09AM 38.5650 -104.6014 250° West 417 480 38,000  Level Denver Center
09:10AM 38.5256 -104.7453 251° West 422 486 38,000  Level Denver Center
09:11AM 38.4844 -104.8872 250° West 423 487 38,000  Level Denver Center
09:12AM 38.4439 -105.0322 250° West 427 491 38,000  Level Denver Center
09:13AM 38.4017 -105.1775 250° West 431 496 38,000  Level Denver Center
09:14AM 38.3528 -105.3489 250° West 435 501 38,000  Level Denver Center
09:15AM 38.3147 -105.4803 250° West 436 502 38,000  Level Denver Center
09:16AM 38.2692 -105.6400 250° West 431 496 38,000  Level Denver Center
09:17AM 38.2300 -105.7744 250° West 426 490 38,000  Level Denver Center
09:18AM 38.1906 -105.9103 250° West 427 491 38,000  Level Denver Center
09:19AM 38.1444 -106.0672 250° West 425 489 38,000  Level Denver Center
09:20AM 38.1067 -106.1936 249° West 426 490 38,000  Level Denver Center
09:21AM 38.0642 -106.3347 249° West 422 486 38,000  Level Denver Center
09:22AM 38.0181 -106.4892 249° West 418 481 38,000  Level Denver Center
09:23AM 37.9800 -106.6172 249° West 414 476 38,000  Level Denver Center
09:24AM 37.9336 -106.7711 249° West 418 481 38,000  Level Denver Center
09:25AM 37.8931 -106.9044 249° West 423 487 38,000  Level Denver Center
09:26AM 37.8522 -107.0367 249° West 422 486 38,000  Level Denver Center
09:28AM 37.8100 -107.1778 249° West 424 488 38,000  Level Denver Center
09:29AM 37.7617 -107.3342 249° West 428 493 38,000  Level Denver Center
09:30AM 37.7203 -107.4664 248° West 424 488 38,000  Level Denver Center
09:31AM 37.6653 -107.6447 249° West 428 493 38,000  Level Denver Center
09:32AM 37.6222 -107.7778 248° West 428 493 38,000  Level Denver Center
09:33AM 37.5808 -107.9131 249° West 431 496 38,000  Level Denver Center
09:34AM 37.5314 -108.0686 248° West 430 495 38,000  Level Denver Center
09:35AM 37.4889 -108.2019 248° West 429 494 38,000  Level Denver Center
09:36AM 37.4389 -108.3572 248° West 429 494 38,000  Level Denver Center
09:37AM 37.3972 -108.4906 249° West 430 495 38,000  Level Denver Center
09:38AM 37.3547 -108.6211 248° West 425 489 38,000  Level Denver Center
09:39AM 37.3058 -108.7697 248° West 417 480 38,000  Level Denver Center
09:40AM 37.2647 -108.8983 248° West 414 476 38,000  Level Denver Center
09:41AM 37.2161 -109.0469 248° West 413 475 38,000  Level Denver Center
09:42AM 37.1811 -109.1517 247° West 411 473 38,000  Level Denver Center
09:43AM 37.1328 -109.2986 248° West 410 472 38,000  Level Denver Center
09:44AM 37.0836 -109.4464 247° West 411 473 38,000  Level Denver Center
09:45AM 37.0400 -109.5750 247° West 416 479 38,000  Level Denver Center
09:46AM 36.9917 -109.7214 248° West 413 475 38,000  Level Denver Center
09:47AM 36.9503 -109.8447 247° West 408 470 38,000  Level Denver Center
09:48AM 36.9094 -109.9669 247° West 402 463 38,000  Level Denver Center
09:49AM 36.8594 -110.1097 246° West 402 463 38,000  Level Denver Center
09:50AM 36.8208 -110.2261 248° West 400 460 38,000  Level Denver Center
09:51AM 36.7686 -110.3786 247° West 398 458 38,000  Level Denver Center
09:52AM 36.7261 -110.5042 247° West 395 455 38,000  Level Denver Center
09:53AM 36.6739 -110.6561 247° West 397 457 38,000  Level Denver Center
09:54AM 36.6311 -110.7825 247° West 396 456 38,000  Level Denver Center
09:55AM 36.5864 -110.9094 246° West 399 459 38,000  Level Denver Center
09:56AM 36.5417 -111.0364 246° West 400 460 38,000  Level Denver Center
09:57AM 36.4967 -111.1642 246° West 402 463 38,000  Level Denver Center
09:59AM 36.4492 -111.2908 245° Southwest 404 465 38,000  Level Denver Center
10:00AM 36.4033 -111.4156 245° Southwest 400 460 38,000  Level Denver Center
10:01AM 36.3556 -111.5419 245° Southwest 401 461 38,000  Level Denver Center
10:02AM 36.3103 -111.6669 246° West 400 460 38,000  Level Denver Center
10:03AM 36.2628 -111.7939 245° Southwest 403 464 38,000  Level Denver Center
10:03AM 36.2247 -111.8964 245° Southwest 401 461 38,000  Level Los Angeles Center
10:04AM 36.1756 -112.0231 244° Southwest 401 461 38,000  Level Los Angeles Center
10:05AM 36.1292 -112.1467 245° Southwest 398 458 38,000  Level Los Angeles Center
10:06AM 36.0828 -112.2697 245° Southwest 398 458 38,000  Level Los Angeles Center
10:07AM 36.0386 -112.3908 246° West 395 455 38,000  Level Los Angeles Center
10:08AM 35.9825 -112.5344 244° Southwest 390 449 38,000  Level Los Angeles Center
10:09AM 35.9350 -112.6603 245° Southwest 393 452 38,000  Level Los Angeles Center
10:10AM 35.8864 -112.7872 245° Southwest 400 460 38,000  Level Los Angeles Center
10:12AM 35.8406 -112.9053 244° Southwest 399 459 38,000  Level Los Angeles Center
10:13AM 35.7944 -113.0278 245° Southwest 399 459 38,000  Level Los Angeles Center
10:14AM 35.7461 -113.1508 244° Southwest 403 464 38,000  Level Los Angeles Center
10:15AM 35.6892 -113.2969 244° Southwest 401 461 38,000  Level Los Angeles Center
10:16AM 35.6411 -113.4181 244° Southwest 400 460 38,000  Level Los Angeles Center
10:17AM 35.5939 -113.5397 245° Southwest 399 459 38,000  Level Los Angeles Center
10:18AM 35.5458 -113.6608 244° Southwest 398 458 38,000  Level Los Angeles Center
10:19AM 35.4975 -113.7803 244° Southwest 396 456 38,000  Level Los Angeles Center
10:20AM 35.4497 -113.9014 244° Southwest 397 457 38,000  Level Los Angeles Center
10:21AM 35.3939 -114.0456 245° Southwest 395 455 38,000  Level Los Angeles Center
10:22AM 35.3458 -114.1636 244° Southwest 390 449 38,000  Level Los Angeles Center
10:23AM 35.2975 -114.2822 243° Southwest 392 451 38,000  Level Los Angeles Center
10:24AM 35.2508 -114.4019 245° Southwest 392 451 38,000  Level Los Angeles Center
10:25AM 35.2028 -114.5200 244° Southwest 391 450 38,000  Level Los Angeles Center
10:26AM 35.1450 -114.6539 242° Southwest 393 452 38,000  Level Los Angeles Center
10:27AM 35.0978 -114.7722 244° Southwest 390 449 38,000  Level Los Angeles Center
10:28AM 35.0497 -114.8914 244° Southwest 390 449 38,000  Level Los Angeles Center
10:29AM 34.9975 -115.0097 242° Southwest 394 453 38,000  Level Los Angeles Center
10:30AM 34.9514 -115.1294 245° Southwest 393 452 38,000  Level Los Angeles Center
10:31AM 34.9031 -115.2492 244° Southwest 393 452 38,000  Level Los Angeles Center
10:32AM 34.8431 -115.3931 243° Southwest 396 456 38,000  Level Los Angeles Center
10:33AM 34.7919 -115.5136 243° Southwest 400 460 38,000  Level Los Angeles Center
10:34AM 34.7406 -115.6344 243° Southwest 401 461 38,000  Level Los Angeles Center
10:35AM 34.6900 -115.7542 243° Southwest 400 460 38,000  Level Los Angeles Center
10:36AM 34.6397 -115.8744 243° Southwest 400 460 38,000  Level Los Angeles Center
10:37AM 34.5897 -115.9933 243° Southwest 398 458 38,000  Level Los Angeles Center
10:38AM 34.5400 -116.1114 243° Southwest 395 455 38,000 -195 Level Los Angeles Center
10:39AM 34.4783 -116.2536 242° Southwest 396 456 37,600 -1,512 Descending Los Angeles Center
10:40AM 34.4286 -116.3692 242° Southwest 388 447 34,900 -2,758 Descending Los Angeles Center
10:41AM 34.3786 -116.4867 243° Southwest 392 451 31,900 -2,516 Descending Los Angeles Center
10:42AM 34.3278 -116.6028 242° Southwest 390 449 29,700 -2,390 Descending Los Angeles Center
10:43AM 34.2808 -116.7106 242° Southwest 366 421 27,000 -2,537 Descending Los Angeles Center
10:44AM 34.2350 -116.8175 243° Southwest 358 412 24,500 -2,371 Descending Los Angeles Center
10:45AM 34.1906 -116.9186 242° Southwest 344 396 22,100 -2,293 Descending Los Angeles Center
10:46AM 34.1467 -117.0175 242° Southwest 336 387 19,800 -2,236 Descending Los Angeles Center
10:47AM 34.1000 -117.1167 240° Southwest 318 366 18,000 -1,156 Descending Southern California TRACON
10:48AM 34.0667 -117.2167 248° West 312 359 17,700 -1,041 Descending Southern California TRACON
10:49AM 34.0500 -117.3000 256° West 307 353 15,900 -1,835 Descending Southern California TRACON
10:50AM 34.0333 -117.4000 259° West 294 338 14,000 -1,650 Descending Southern California TRACON
10:51AM 34.0667 -117.4833 296° West 312 359 12,600 -1,000 Descending Southern California TRACON
10:52AM 34.1167 -117.5500 312° West 297 342 12,100 -947 Descending Southern California TRACON
10:53AM 34.0667 -117.6333 234° Southwest 339 390 10,800 -1,000 Descending Southern California TRACON
10:54AM 34.0333 -117.7000 239° Southwest 265 305 10,100 -947 Descending Southern California TRACON
10:55AM 34.0167 -117.7833 256° West 260 299 9,000 -1,263 Descending Southern California TRACON
10:56AM 34.0000 -117.8667 256° West 268 308 7,700 -1,150 Descending Southern California TRACON
10:57AM 34.0000 -117.9500 270° West 244 281 6,700 -947 Descending Southern California TRACON
10:58AM 33.9833 -118.0167 253° West 230 265 5,900 -873 Descending Southern California TRACON
11:00AM 33.9792 -118.1436 268° West 202 232 4,300 -902 Descending Los Angeles Center
11:01AM 33.9725 -118.2061 263° West 193 222 3,300 -871 Descending Los Angeles Center
11:02AM 33.9667 -118.2608 263° West 178 205 2,500 -774 Descending Los Angeles Center
11:03AM 33.9614 -118.3089 262° West 162 186 1,700 -726 Descending Los Angeles Center
11:04AM 33.9575 -118.3542 264° West 147 169 1,000 -732 Descending Los Angeles Center
11:05AM 33.9528 -118.3997 263° West 141 162 200 -787 Descending Los Angeles Center
11:07AM 33.9333 -118.4000 259° West  Level FlightAware Approximate
11:14AM 33.9425 -118.4081 259° West  Level Estimated